sensor_id;sensor_type;location;lat;lon;timestamp;temperature;humidity
40153;DHT22;26371;56.992;23.912;2024-01-10T00:00:44;1.80;99.90
40153;DHT22;26371;56.992;23.912;2024-01-10T00:03:13;1.80;99.90
40153;DHT22;26371;56.992;23.912;2024-01-10T00:05:42;1.80;99.90
40153;DHT22;26371;56.992;23.912;2024-01-10T00:08:13;1.80;99.90
40153;DHT22;26371;56.992;23.912;2024-01-10T00:10:42;1.80;99.90
40153;DHT22;26371;56.992;23.912;2024-01-10T00:13:14;1.90;99.90
40153;DHT22;26371;56.992;23.912;2024-01-10T00:15:43;1.90;99.90
40153;DHT22;26371;56.992;23.912;2024-01-10T00:18:12;1.90;99.90
40153;DHT22;26371;56.992;23.912;2024-01-10T00:20:41;1.90;99.90
40153;DHT22;26371;56.992;23.912;2024-01-10T00:23:10;1.90;99.90
40153;DHT22;26371;56.992;23.912;2024-01-10T00:25:41;1.90;99.90
40153;DHT22;26371;56.992;23.912;2024-01-10T00:28:11;1.90;99.90
40153;DHT22;26371;56.992;23.912;2024-01-10T00:30:40;1.90;99.90
40153;DHT22;26371;56.992;23.912;2024-01-10T00:33:09;1.90;99.90
40153;DHT22;26371;56.992;23.912;2024-01-10T00:35:38;1.90;99.90
40153;DHT22;26371;56.992;23.912;2024-01-10T00:38:08;1.90;99.90
40153;DHT22;26371;56.992;23.912;2024-01-10T00:40:37;1.90;99.90
40153;DHT22;26371;56.992;23.912;2024-01-10T00:43:07;1.90;99.90
40153;DHT22;26371;56.992;23.912;2024-01-10T00:45:36;2.00;99.90
40153;DHT22;26371;56.992;23.912;2024-01-10T00:48:07;2.00;99.90
40153;DHT22;26371;56.992;23.912;2024-01-10T00:50:36;2.00;99.90
40153;DHT22;26371;56.992;23.912;2024-01-10T00:53:04;2.00;99.90
40153;DHT22;26371;56.992;23.912;2024-01-10T00:55:33;2.00;99.90
40153;DHT22;26371;56.992;23.912;2024-01-10T00:58:03;1.90;99.90
40153;DHT22;26371;56.992;23.912;2024-01-10T01:00:33;2.00;99.90
40153;DHT22;26371;56.992;23.912;2024-01-10T01:03:02;2.00;99.90
40153;DHT22;26371;56.992;23.912;2024-01-10T01:05:31;2.00;99.90
40153;DHT22;26371;56.992;23.912;2024-01-10T01:08:00;2.00;99.90
40153;DHT22;26371;56.992;23.912;2024-01-10T01:10:29;2.00;99.90
40153;DHT22;26371;56.992;23.912;2024-01-10T01:13:02;2.00;99.90
40153;DHT22;26371;56.992;23.912;2024-01-10T01:15:32;2.00;99.90
40153;DHT22;26371;56.992;23.912;2024-01-10T01:18:02;2.00;99.90
40153;DHT22;26371;56.992;23.912;2024-01-10T01:20:32;2.00;99.90
40153;DHT22;26371;56.992;23.912;2024-01-10T01:23:01;2.00;99.90
40153;DHT22;26371;56.992;23.912;2024-01-10T01:25:29;2.10;99.90
40153;DHT22;26371;56.992;23.912;2024-01-10T01:27:59;2.10;99.90
40153;DHT22;26371;56.992;23.912;2024-01-10T01:30:28;2.10;99.90
40153;DHT22;26371;56.992;23.912;2024-01-10T01:32:58;2.10;99.90
40153;DHT22;26371;56.992;23.912;2024-01-10T01:35:28;2.10;99.90
40153;DHT22;26371;56.992;23.912;2024-01-10T01:37:58;2.10;99.90
40153;DHT22;26371;56.992;23.912;2024-01-10T01:40:27;2.00;99.90
40153;DHT22;26371;56.992;23.912;2024-01-10T01:42:56;2.00;99.90
40153;DHT22;26371;56.992;23.912;2024-01-10T01:45:25;2.00;99.90
40153;DHT22;26371;56.992;23.912;2024-01-10T01:47:54;2.00;99.90
40153;DHT22;26371;56.992;23.912;2024-01-10T01:50:25;2.00;99.90
40153;DHT22;26371;56.992;23.912;2024-01-10T01:52:55;2.10;99.90
40153;DHT22;26371;56.992;23.912;2024-01-10T01:55:23;2.10;99.90
40153;DHT22;26371;56.992;23.912;2024-01-10T01:57:52;2.10;99.90
40153;DHT22;26371;56.992;23.912;2024-01-10T02:00:22;2.10;99.90
40153;DHT22;26371;56.992;23.912;2024-01-10T02:02:52;2.10;99.90
40153;DHT22;26371;56.992;23.912;2024-01-10T02:05:22;2.10;99.90
40153;DHT22;26371;56.992;23.912;2024-01-10T02:07:52;2.10;99.90
40153;DHT22;26371;56.992;23.912;2024-01-10T02:10:22;2.10;99.90
40153;DHT22;26371;56.992;23.912;2024-01-10T02:12:51;2.10;99.90
40153;DHT22;26371;56.992;23.912;2024-01-10T02:15:21;2.10;99.90
40153;DHT22;26371;56.992;23.912;2024-01-10T02:17:49;2.10;99.90
40153;DHT22;26371;56.992;23.912;2024-01-10T02:20:19;2.10;99.90
40153;DHT22;26371;56.992;23.912;2024-01-10T02:22:49;2.10;99.90
40153;DHT22;26371;56.992;23.912;2024-01-10T02:25:20;2.10;99.90
40153;DHT22;26371;56.992;23.912;2024-01-10T02:27:49;2.10;99.90
40153;DHT22;26371;56.992;23.912;2024-01-10T02:30:17;2.10;99.90
40153;DHT22;26371;56.992;23.912;2024-01-10T02:32:46;2.10;99.90
40153;DHT22;26371;56.992;23.912;2024-01-10T02:35:15;2.10;99.90
40153;DHT22;26371;56.992;23.912;2024-01-10T02:37:44;2.10;99.90
40153;DHT22;26371;56.992;23.912;2024-01-10T02:40:13;2.10;99.90
40153;DHT22;26371;56.992;23.912;2024-01-10T02:42:44;2.10;99.90
40153;DHT22;26371;56.992;23.912;2024-01-10T02:45:13;2.00;99.90
40153;DHT22;26371;56.992;23.912;2024-01-10T02:47:42;2.00;99.90
40153;DHT22;26371;56.992;23.912;2024-01-10T02:50:11;2.10;99.90
40153;DHT22;26371;56.992;23.912;2024-01-10T02:52:40;2.10;99.90
40153;DHT22;26371;56.992;23.912;2024-01-10T02:55:09;2.00;99.90
40153;DHT22;26371;56.992;23.912;2024-01-10T02:57:38;2.00;99.90
40153;DHT22;26371;56.992;23.912;2024-01-10T03:00:10;2.00;99.90
40153;DHT22;26371;56.992;23.912;2024-01-10T03:02:40;2.10;99.90
40153;DHT22;26371;56.992;23.912;2024-01-10T03:05:09;2.10;99.90
40153;DHT22;26371;56.992;23.912;2024-01-10T03:07:38;2.10;99.90
40153;DHT22;26371;56.992;23.912;2024-01-10T03:10:07;2.10;99.90
40153;DHT22;26371;56.992;23.912;2024-01-10T03:12:36;2.10;99.90
40153;DHT22;26371;56.992;23.912;2024-01-10T03:15:07;2.10;99.90
40153;DHT22;26371;56.992;23.912;2024-01-10T03:17:36;2.10;99.90
40153;DHT22;26371;56.992;23.912;2024-01-10T03:20:06;2.10;99.90
40153;DHT22;26371;56.992;23.912;2024-01-10T03:22:36;2.10;99.90
40153;DHT22;26371;56.992;23.912;2024-01-10T03:25:06;2.10;99.90
40153;DHT22;26371;56.992;23.912;2024-01-10T03:27:35;2.10;99.90
40153;DHT22;26371;56.992;23.912;2024-01-10T03:30:06;2.10;99.90
40153;DHT22;26371;56.992;23.912;2024-01-10T03:32:36;2.10;99.90
40153;DHT22;26371;56.992;23.912;2024-01-10T03:35:07;2.10;99.90
40153;DHT22;26371;56.992;23.912;2024-01-10T03:37:36;2.10;99.90
40153;DHT22;26371;56.992;23.912;2024-01-10T03:40:09;2.10;99.90
40153;DHT22;26371;56.992;23.912;2024-01-10T03:42:38;2.10;99.90
40153;DHT22;26371;56.992;23.912;2024-01-10T03:45:07;2.10;99.90
40153;DHT22;26371;56.992;23.912;2024-01-10T03:47:37;2.10;99.90
40153;DHT22;26371;56.992;23.912;2024-01-10T03:50:06;2.10;99.90
40153;DHT22;26371;56.992;23.912;2024-01-10T03:52:36;2.10;99.90
40153;DHT22;26371;56.992;23.912;2024-01-10T03:55:05;2.10;99.90
40153;DHT22;26371;56.992;23.912;2024-01-10T03:57:34;2.10;99.90
40153;DHT22;26371;56.992;23.912;2024-01-10T04:00:05;2.10;99.90
40153;DHT22;26371;56.992;23.912;2024-01-10T04:02:37;2.10;99.90
40153;DHT22;26371;56.992;23.912;2024-01-10T04:05:07;2.10;99.90
40153;DHT22;26371;56.992;23.912;2024-01-10T04:07:40;2.10;99.90
40153;DHT22;26371;56.992;23.912;2024-01-10T04:10:11;2.10;99.90
40153;DHT22;26371;56.992;23.912;2024-01-10T04:12:42;2.10;99.90
40153;DHT22;26371;56.992;23.912;2024-01-10T04:15:11;2.10;99.90
40153;DHT22;26371;56.992;23.912;2024-01-10T04:17:42;2.10;99.90
40153;DHT22;26371;56.992;23.912;2024-01-10T04:20:11;2.00;99.90
40153;DHT22;26371;56.992;23.912;2024-01-10T04:22:40;2.00;99.90
40153;DHT22;26371;56.992;23.912;2024-01-10T04:25:10;2.00;99.90
40153;DHT22;26371;56.992;23.912;2024-01-10T04:27:39;2.00;99.90
40153;DHT22;26371;56.992;23.912;2024-01-10T04:30:09;2.10;99.90
40153;DHT22;26371;56.992;23.912;2024-01-10T04:32:38;2.00;99.90
40153;DHT22;26371;56.992;23.912;2024-01-10T04:35:08;2.10;99.90
40153;DHT22;26371;56.992;23.912;2024-01-10T04:37:37;2.10;99.90
40153;DHT22;26371;56.992;23.912;2024-01-10T04:40:07;2.00;99.90
40153;DHT22;26371;56.992;23.912;2024-01-10T04:42:36;2.00;99.90
40153;DHT22;26371;56.992;23.912;2024-01-10T04:45:06;2.00;99.90
40153;DHT22;26371;56.992;23.912;2024-01-10T04:47:35;2.00;99.90
40153;DHT22;26371;56.992;23.912;2024-01-10T04:50:05;2.00;99.90
40153;DHT22;26371;56.992;23.912;2024-01-10T04:53:00;2.00;99.90
40153;DHT22;26371;56.992;23.912;2024-01-10T04:55:29;2.00;99.90
40153;DHT22;26371;56.992;23.912;2024-01-10T04:57:58;2.00;99.90
40153;DHT22;26371;56.992;23.912;2024-01-10T05:00:29;2.00;99.90
40153;DHT22;26371;56.992;23.912;2024-01-10T05:02:58;2.00;99.90
40153;DHT22;26371;56.992;23.912;2024-01-10T05:05:27;2.00;99.90
40153;DHT22;26371;56.992;23.912;2024-01-10T05:07:57;2.00;99.90
40153;DHT22;26371;56.992;23.912;2024-01-10T05:10:27;2.00;99.90
40153;DHT22;26371;56.992;23.912;2024-01-10T05:12:56;1.90;99.90
40153;DHT22;26371;56.992;23.912;2024-01-10T05:15:25;1.90;99.90
40153;DHT22;26371;56.992;23.912;2024-01-10T05:17:54;1.90;99.90
40153;DHT22;26371;56.992;23.912;2024-01-10T05:20:23;1.90;99.90
40153;DHT22;26371;56.992;23.912;2024-01-10T05:22:52;1.90;99.90
40153;DHT22;26371;56.992;23.912;2024-01-10T05:25:21;1.90;99.90
40153;DHT22;26371;56.992;23.912;2024-01-10T05:27:52;1.90;99.90
40153;DHT22;26371;56.992;23.912;2024-01-10T05:30:21;2.00;99.90
40153;DHT22;26371;56.992;23.912;2024-01-10T05:32:54;1.90;99.90
40153;DHT22;26371;56.992;23.912;2024-01-10T05:35:24;2.00;99.90
40153;DHT22;26371;56.992;23.912;2024-01-10T05:37:53;1.90;99.90
40153;DHT22;26371;56.992;23.912;2024-01-10T05:40:22;2.00;99.90
40153;DHT22;26371;56.992;23.912;2024-01-10T05:42:54;2.00;99.90
40153;DHT22;26371;56.992;23.912;2024-01-10T05:45:22;2.00;99.90
40153;DHT22;26371;56.992;23.912;2024-01-10T05:47:51;2.00;99.90
40153;DHT22;26371;56.992;23.912;2024-01-10T05:50:24;2.00;99.90
40153;DHT22;26371;56.992;23.912;2024-01-10T05:52:53;2.00;99.90
40153;DHT22;26371;56.992;23.912;2024-01-10T05:55:22;2.00;99.90
40153;DHT22;26371;56.992;23.912;2024-01-10T05:57:52;2.00;99.90
40153;DHT22;26371;56.992;23.912;2024-01-10T06:00:21;2.00;99.90
40153;DHT22;26371;56.992;23.912;2024-01-10T06:02:51;1.90;99.90
40153;DHT22;26371;56.992;23.912;2024-01-10T06:05:20;2.00;99.90
40153;DHT22;26371;56.992;23.912;2024-01-10T06:07:50;1.90;99.90
40153;DHT22;26371;56.992;23.912;2024-01-10T06:10:19;1.90;99.90
40153;DHT22;26371;56.992;23.912;2024-01-10T06:12:48;1.90;99.90
40153;DHT22;26371;56.992;23.912;2024-01-10T06:15:18;1.90;99.90
40153;DHT22;26371;56.992;23.912;2024-01-10T06:17:47;2.00;99.90
40153;DHT22;26371;56.992;23.912;2024-01-10T06:20:17;2.00;99.90
40153;DHT22;26371;56.992;23.912;2024-01-10T06:22:46;2.00;99.90
40153;DHT22;26371;56.992;23.912;2024-01-10T06:25:17;2.00;99.90
40153;DHT22;26371;56.992;23.912;2024-01-10T06:27:47;2.00;99.90
40153;DHT22;26371;56.992;23.912;2024-01-10T06:30:18;2.00;99.90
40153;DHT22;26371;56.992;23.912;2024-01-10T06:32:48;1.90;99.90
40153;DHT22;26371;56.992;23.912;2024-01-10T06:35:16;2.00;99.90
40153;DHT22;26371;56.992;23.912;2024-01-10T06:37:45;2.00;99.90
40153;DHT22;26371;56.992;23.912;2024-01-10T06:40:17;2.00;99.90
40153;DHT22;26371;56.992;23.912;2024-01-10T06:42:45;2.00;99.90
40153;DHT22;26371;56.992;23.912;2024-01-10T06:45:15;2.00;99.90
40153;DHT22;26371;56.992;23.912;2024-01-10T06:47:45;2.00;99.90
40153;DHT22;26371;56.992;23.912;2024-01-10T06:50:14;2.00;99.90
40153;DHT22;26371;56.992;23.912;2024-01-10T06:52:43;2.00;99.90
40153;DHT22;26371;56.992;23.912;2024-01-10T06:55:12;2.00;99.90
40153;DHT22;26371;56.992;23.912;2024-01-10T06:57:41;2.00;99.90
40153;DHT22;26371;56.992;23.912;2024-01-10T07:00:10;2.00;99.90
40153;DHT22;26371;56.992;23.912;2024-01-10T07:02:41;2.00;99.90
40153;DHT22;26371;56.992;23.912;2024-01-10T07:05:11;2.00;99.90
40153;DHT22;26371;56.992;23.912;2024-01-10T07:07:40;2.00;99.90
40153;DHT22;26371;56.992;23.912;2024-01-10T07:10:11;2.00;99.90
40153;DHT22;26371;56.992;23.912;2024-01-10T07:12:40;2.00;99.90
40153;DHT22;26371;56.992;23.912;2024-01-10T07:15:10;2.00;99.90
40153;DHT22;26371;56.992;23.912;2024-01-10T07:17:39;2.10;99.90
40153;DHT22;26371;56.992;23.912;2024-01-10T07:20:11;2.10;99.90
40153;DHT22;26371;56.992;23.912;2024-01-10T07:22:40;2.10;99.90
40153;DHT22;26371;56.992;23.912;2024-01-10T07:25:12;2.10;99.90
40153;DHT22;26371;56.992;23.912;2024-01-10T07:27:42;2.10;99.90
40153;DHT22;26371;56.992;23.912;2024-01-10T07:30:11;2.10;99.90
40153;DHT22;26371;56.992;23.912;2024-01-10T07:32:42;2.10;99.90
40153;DHT22;26371;56.992;23.912;2024-01-10T07:35:14;2.20;99.90
40153;DHT22;26371;56.992;23.912;2024-01-10T07:37:43;2.20;99.90
40153;DHT22;26371;56.992;23.912;2024-01-10T07:40:12;2.20;99.90
40153;DHT22;26371;56.992;23.912;2024-01-10T07:42:44;2.20;99.90
40153;DHT22;26371;56.992;23.912;2024-01-10T07:45:13;2.10;99.90
40153;DHT22;26371;56.992;23.912;2024-01-10T07:47:41;2.10;99.90
40153;DHT22;26371;56.992;23.912;2024-01-10T07:50:10;2.10;99.90
40153;DHT22;26371;56.992;23.912;2024-01-10T07:52:44;2.10;99.90
40153;DHT22;26371;56.992;23.912;2024-01-10T07:55:13;2.10;99.90
40153;DHT22;26371;56.992;23.912;2024-01-10T07:57:43;2.20;99.90
40153;DHT22;26371;56.992;23.912;2024-01-10T08:00:12;2.20;99.90
40153;DHT22;26371;56.992;23.912;2024-01-10T08:02:43;2.10;99.90
40153;DHT22;26371;56.992;23.912;2024-01-10T08:05:12;2.20;99.90
40153;DHT22;26371;56.992;23.912;2024-01-10T08:07:42;2.20;99.90
40153;DHT22;26371;56.992;23.912;2024-01-10T08:10:11;2.10;99.90
40153;DHT22;26371;56.992;23.912;2024-01-10T08:12:41;2.20;99.90
40153;DHT22;26371;56.992;23.912;2024-01-10T08:15:12;2.20;99.90
40153;DHT22;26371;56.992;23.912;2024-01-10T08:17:42;2.20;99.90
40153;DHT22;26371;56.992;23.912;2024-01-10T08:20:12;2.20;99.90
40153;DHT22;26371;56.992;23.912;2024-01-10T08:22:49;2.20;99.90
40153;DHT22;26371;56.992;23.912;2024-01-10T08:25:18;2.20;99.90
40153;DHT22;26371;56.992;23.912;2024-01-10T08:27:51;2.20;99.90
40153;DHT22;26371;56.992;23.912;2024-01-10T08:30:22;2.20;99.90
40153;DHT22;26371;56.992;23.912;2024-01-10T08:32:51;2.20;99.90
40153;DHT22;26371;56.992;23.912;2024-01-10T08:35:20;2.20;99.90
40153;DHT22;26371;56.992;23.912;2024-01-10T08:37:56;2.20;99.90
40153;DHT22;26371;56.992;23.912;2024-01-10T08:40:25;2.30;99.90
40153;DHT22;26371;56.992;23.912;2024-01-10T08:42:55;2.20;99.90
40153;DHT22;26371;56.992;23.912;2024-01-10T08:45:23;2.30;99.90
40153;DHT22;26371;56.992;23.912;2024-01-10T08:47:52;2.30;99.90
40153;DHT22;26371;56.992;23.912;2024-01-10T08:50:23;2.30;99.90
40153;DHT22;26371;56.992;23.912;2024-01-10T08:52:51;2.30;99.90
40153;DHT22;26371;56.992;23.912;2024-01-10T08:55:22;2.30;99.90
40153;DHT22;26371;56.992;23.912;2024-01-10T08:57:51;2.30;99.90
40153;DHT22;26371;56.992;23.912;2024-01-10T09:00:21;2.30;99.90
40153;DHT22;26371;56.992;23.912;2024-01-10T09:02:55;2.30;99.90
40153;DHT22;26371;56.992;23.912;2024-01-10T09:05:24;2.30;99.90
40153;DHT22;26371;56.992;23.912;2024-01-10T09:07:54;2.30;99.90
40153;DHT22;26371;56.992;23.912;2024-01-10T09:10:24;2.30;99.90
40153;DHT22;26371;56.992;23.912;2024-01-10T09:12:57;2.40;99.90
40153;DHT22;26371;56.992;23.912;2024-01-10T09:15:27;2.40;99.90
40153;DHT22;26371;56.992;23.912;2024-01-10T09:17:56;2.40;99.90
40153;DHT22;26371;56.992;23.912;2024-01-10T09:20:25;2.40;99.90
40153;DHT22;26371;56.992;23.912;2024-01-10T09:22:54;2.40;99.90
40153;DHT22;26371;56.992;23.912;2024-01-10T09:25:25;2.40;99.90
40153;DHT22;26371;56.992;23.912;2024-01-10T09:27:54;2.50;99.90
40153;DHT22;26371;56.992;23.912;2024-01-10T09:30:23;2.50;99.90
40153;DHT22;26371;56.992;23.912;2024-01-10T09:32:52;2.50;99.90
40153;DHT22;26371;56.992;23.912;2024-01-10T09:35:21;2.50;99.90
40153;DHT22;26371;56.992;23.912;2024-01-10T09:37:50;2.60;99.90
40153;DHT22;26371;56.992;23.912;2024-01-10T09:40:21;2.60;99.90
40153;DHT22;26371;56.992;23.912;2024-01-10T09:42:55;2.50;99.90
40153;DHT22;26371;56.992;23.912;2024-01-10T09:45:25;2.60;99.90
40153;DHT22;26371;56.992;23.912;2024-01-10T09:48:49;2.50;99.90
40153;DHT22;26371;56.992;23.912;2024-01-10T09:51:23;2.50;99.90
40153;DHT22;26371;56.992;23.912;2024-01-10T09:53:56;2.50;99.90
40153;DHT22;26371;56.992;23.912;2024-01-10T09:56:26;2.50;99.90
40153;DHT22;26371;56.992;23.912;2024-01-10T09:58:58;2.50;99.90
40153;DHT22;26371;56.992;23.912;2024-01-10T10:01:30;2.50;99.90
40153;DHT22;26371;56.992;23.912;2024-01-10T10:03:59;2.50;99.90
40153;DHT22;26371;56.992;23.912;2024-01-10T10:06:30;2.50;99.90
40153;DHT22;26371;56.992;23.912;2024-01-10T10:08:59;2.50;99.90
40153;DHT22;26371;56.992;23.912;2024-01-10T10:11:28;2.50;99.90
40153;DHT22;26371;56.992;23.912;2024-01-10T10:14:13;2.50;99.90
40153;DHT22;26371;56.992;23.912;2024-01-10T10:17:14;2.50;99.90
40153;DHT22;26371;56.992;23.912;2024-01-10T10:19:44;2.50;99.90
40153;DHT22;26371;56.992;23.912;2024-01-10T10:22:14;2.50;99.90
40153;DHT22;26371;56.992;23.912;2024-01-10T10:24:48;2.50;99.90
40153;DHT22;26371;56.992;23.912;2024-01-10T10:27:17;2.50;99.90
40153;DHT22;26371;56.992;23.912;2024-01-10T10:29:48;2.50;99.90
40153;DHT22;26371;56.992;23.912;2024-01-10T10:32:19;2.50;99.90
40153;DHT22;26371;56.992;23.912;2024-01-10T10:34:48;2.50;99.90
40153;DHT22;26371;56.992;23.912;2024-01-10T10:37:17;2.50;99.90
40153;DHT22;26371;56.992;23.912;2024-01-10T10:40:06;2.60;99.90
40153;DHT22;26371;56.992;23.912;2024-01-10T10:42:38;2.60;99.90
40153;DHT22;26371;56.992;23.912;2024-01-10T10:45:14;2.50;99.90
40153;DHT22;26371;56.992;23.912;2024-01-10T10:47:45;2.50;99.90
40153;DHT22;26371;56.992;23.912;2024-01-10T10:50:21;2.50;99.90
40153;DHT22;26371;56.992;23.912;2024-01-10T10:52:51;2.50;99.90
40153;DHT22;26371;56.992;23.912;2024-01-10T10:55:20;2.50;99.90
40153;DHT22;26371;56.992;23.912;2024-01-10T10:57:49;2.50;99.90
40153;DHT22;26371;56.992;23.912;2024-01-10T11:00:32;2.50;99.90
40153;DHT22;26371;56.992;23.912;2024-01-10T11:03:03;2.50;99.90
40153;DHT22;26371;56.992;23.912;2024-01-10T11:05:52;2.50;99.90
40153;DHT22;26371;56.992;23.912;2024-01-10T11:08:22;2.50;99.90
40153;DHT22;26371;56.992;23.912;2024-01-10T11:10:53;2.40;99.90
40153;DHT22;26371;56.992;23.912;2024-01-10T11:13:27;2.40;99.90
40153;DHT22;26371;56.992;23.912;2024-01-10T11:16:16;2.40;99.90
40153;DHT22;26371;56.992;23.912;2024-01-10T11:19:07;2.40;99.90
40153;DHT22;26371;56.992;23.912;2024-01-10T11:21:44;2.40;99.90
40153;DHT22;26371;56.992;23.912;2024-01-10T11:24:18;2.50;99.90
40153;DHT22;26371;56.992;23.912;2024-01-10T11:26:47;2.50;99.90
40153;DHT22;26371;56.992;23.912;2024-01-10T11:29:17;2.50;99.90
40153;DHT22;26371;56.992;23.912;2024-01-10T11:31:52;2.50;99.90
40153;DHT22;26371;56.992;23.912;2024-01-10T11:34:24;2.50;99.90
40153;DHT22;26371;56.992;23.912;2024-01-10T11:37:09;2.50;99.90
40153;DHT22;26371;56.992;23.912;2024-01-10T11:39:41;2.50;99.90
40153;DHT22;26371;56.992;23.912;2024-01-10T11:42:11;2.50;99.90
40153;DHT22;26371;56.992;23.912;2024-01-10T11:44:50;2.60;99.90
40153;DHT22;26371;56.992;23.912;2024-01-10T11:47:21;2.60;99.90
40153;DHT22;26371;56.992;23.912;2024-01-10T11:49:57;2.50;99.90
40153;DHT22;26371;56.992;23.912;2024-01-10T11:52:33;2.60;99.90
40153;DHT22;26371;56.992;23.912;2024-01-10T11:55:02;2.60;99.90
40153;DHT22;26371;56.992;23.912;2024-01-10T11:57:32;2.60;99.90
40153;DHT22;26371;56.992;23.912;2024-01-10T12:00:02;2.60;99.90
40153;DHT22;26371;56.992;23.912;2024-01-10T12:02:34;2.60;99.90
40153;DHT22;26371;56.992;23.912;2024-01-10T12:05:04;2.60;99.90
40153;DHT22;26371;56.992;23.912;2024-01-10T12:07:34;2.60;99.90
40153;DHT22;26371;56.992;23.912;2024-01-10T12:10:06;2.60;99.90
40153;DHT22;26371;56.992;23.912;2024-01-10T12:12:35;2.60;99.90
40153;DHT22;26371;56.992;23.912;2024-01-10T12:15:05;2.60;99.90
40153;DHT22;26371;56.992;23.912;2024-01-10T12:17:38;2.60;99.90
40153;DHT22;26371;56.992;23.912;2024-01-10T12:20:07;2.60;99.90
40153;DHT22;26371;56.992;23.912;2024-01-10T12:22:36;2.60;99.90
40153;DHT22;26371;56.992;23.912;2024-01-10T12:25:06;2.50;99.90
40153;DHT22;26371;56.992;23.912;2024-01-10T12:27:35;2.50;99.90
40153;DHT22;26371;56.992;23.912;2024-01-10T12:30:05;2.50;99.90
40153;DHT22;26371;56.992;23.912;2024-01-10T12:32:36;2.50;99.90
40153;DHT22;26371;56.992;23.912;2024-01-10T12:35:06;2.50;99.90
40153;DHT22;26371;56.992;23.912;2024-01-10T12:37:36;2.50;99.90
40153;DHT22;26371;56.992;23.912;2024-01-10T12:40:08;2.50;99.90
40153;DHT22;26371;56.992;23.912;2024-01-10T12:42:38;2.50;99.90
40153;DHT22;26371;56.992;23.912;2024-01-10T12:45:20;2.50;99.90
40153;DHT22;26371;56.992;23.912;2024-01-10T12:47:53;2.50;99.90
40153;DHT22;26371;56.992;23.912;2024-01-10T12:50:22;2.50;99.90
40153;DHT22;26371;56.992;23.912;2024-01-10T12:52:52;2.50;99.90
40153;DHT22;26371;56.992;23.912;2024-01-10T12:55:26;2.50;99.90
40153;DHT22;26371;56.992;23.912;2024-01-10T12:57:55;2.40;99.90
40153;DHT22;26371;56.992;23.912;2024-01-10T13:00:36;2.40;99.90
40153;DHT22;26371;56.992;23.912;2024-01-10T13:03:06;2.40;99.90
40153;DHT22;26371;56.992;23.912;2024-01-10T13:05:35;2.40;99.90
40153;DHT22;26371;56.992;23.912;2024-01-10T13:08:04;2.40;99.90
40153;DHT22;26371;56.992;23.912;2024-01-10T13:10:34;2.40;99.90
40153;DHT22;26371;56.992;23.912;2024-01-10T13:13:03;2.40;99.90
40153;DHT22;26371;56.992;23.912;2024-01-10T13:15:32;2.40;99.90
40153;DHT22;26371;56.992;23.912;2024-01-10T13:18:05;2.40;99.90
40153;DHT22;26371;56.992;23.912;2024-01-10T13:20:37;2.40;99.90
40153;DHT22;26371;56.992;23.912;2024-01-10T13:23:06;2.40;99.90
40153;DHT22;26371;56.992;23.912;2024-01-10T13:25:36;2.40;99.90
40153;DHT22;26371;56.992;23.912;2024-01-10T13:28:05;2.40;99.90
40153;DHT22;26371;56.992;23.912;2024-01-10T13:30:34;2.40;99.90
40153;DHT22;26371;56.992;23.912;2024-01-10T13:33:05;2.50;99.90
40153;DHT22;26371;56.992;23.912;2024-01-10T13:35:34;2.50;99.90
40153;DHT22;26371;56.992;23.912;2024-01-10T13:38:04;2.50;99.90
40153;DHT22;26371;56.992;23.912;2024-01-10T13:40:34;2.60;99.90
40153;DHT22;26371;56.992;23.912;2024-01-10T13:43:03;2.60;99.90
40153;DHT22;26371;56.992;23.912;2024-01-10T13:45:32;2.60;99.90
40153;DHT22;26371;56.992;23.912;2024-01-10T13:48:02;2.60;99.90
40153;DHT22;26371;56.992;23.912;2024-01-10T13:50:34;2.60;99.90
40153;DHT22;26371;56.992;23.912;2024-01-10T13:53:04;2.60;99.90
40153;DHT22;26371;56.992;23.912;2024-01-10T13:55:33;2.60;99.90
40153;DHT22;26371;56.992;23.912;2024-01-10T13:58:03;2.60;99.90
40153;DHT22;26371;56.992;23.912;2024-01-10T14:00:32;2.60;99.90
40153;DHT22;26371;56.992;23.912;2024-01-10T14:03:01;2.60;99.90
40153;DHT22;26371;56.992;23.912;2024-01-10T14:05:30;2.60;99.90
40153;DHT22;26371;56.992;23.912;2024-01-10T14:08:00;2.60;99.90
40153;DHT22;26371;56.992;23.912;2024-01-10T14:10:30;2.60;99.90
40153;DHT22;26371;56.992;23.912;2024-01-10T14:13:02;2.60;99.90
40153;DHT22;26371;56.992;23.912;2024-01-10T14:15:31;2.60;99.90
40153;DHT22;26371;56.992;23.912;2024-01-10T14:18:00;2.60;99.90
40153;DHT22;26371;56.992;23.912;2024-01-10T14:20:29;2.60;99.90
40153;DHT22;26371;56.992;23.912;2024-01-10T14:23:00;2.60;99.90
40153;DHT22;26371;56.992;23.912;2024-01-10T14:25:29;2.60;99.90
40153;DHT22;26371;56.992;23.912;2024-01-10T14:27:58;2.60;99.90
40153;DHT22;26371;56.992;23.912;2024-01-10T14:30:28;2.60;99.90
40153;DHT22;26371;56.992;23.912;2024-01-10T14:32:58;2.60;99.90
40153;DHT22;26371;56.992;23.912;2024-01-10T14:35:28;2.60;99.90
40153;DHT22;26371;56.992;23.912;2024-01-10T14:37:59;2.50;99.90
40153;DHT22;26371;56.992;23.912;2024-01-10T14:40:29;2.50;99.90
40153;DHT22;26371;56.992;23.912;2024-01-10T14:42:58;2.50;99.90
40153;DHT22;26371;56.992;23.912;2024-01-10T14:45:26;2.50;99.90
40153;DHT22;26371;56.992;23.912;2024-01-10T14:47:55;2.50;99.90
40153;DHT22;26371;56.992;23.912;2024-01-10T14:50:25;2.50;99.90
40153;DHT22;26371;56.992;23.912;2024-01-10T14:52:53;2.50;99.90
40153;DHT22;26371;56.992;23.912;2024-01-10T14:55:26;2.50;99.90
40153;DHT22;26371;56.992;23.912;2024-01-10T14:57:56;2.50;99.90
40153;DHT22;26371;56.992;23.912;2024-01-10T15:00:25;2.50;99.90
40153;DHT22;26371;56.992;23.912;2024-01-10T15:02:55;2.50;99.90
40153;DHT22;26371;56.992;23.912;2024-01-10T15:05:23;2.50;99.90
40153;DHT22;26371;56.992;23.912;2024-01-10T15:07:54;2.50;99.90
40153;DHT22;26371;56.992;23.912;2024-01-10T15:10:23;2.50;99.90
40153;DHT22;26371;56.992;23.912;2024-01-10T15:12:54;2.50;99.90
40153;DHT22;26371;56.992;23.912;2024-01-10T15:15:23;2.50;99.90
40153;DHT22;26371;56.992;23.912;2024-01-10T15:17:52;2.50;99.90
40153;DHT22;26371;56.992;23.912;2024-01-10T15:20:21;2.50;99.90
40153;DHT22;26371;56.992;23.912;2024-01-10T15:22:50;2.50;99.90
40153;DHT22;26371;56.992;23.912;2024-01-10T15:25:19;2.40;99.90
40153;DHT22;26371;56.992;23.912;2024-01-10T15:27:48;2.40;99.90
40153;DHT22;26371;56.992;23.912;2024-01-10T15:30:19;2.40;99.90
40153;DHT22;26371;56.992;23.912;2024-01-10T15:32:54;2.40;99.90
40153;DHT22;26371;56.992;23.912;2024-01-10T15:35:23;2.40;99.90
40153;DHT22;26371;56.992;23.912;2024-01-10T15:37:53;2.40;99.90
40153;DHT22;26371;56.992;23.912;2024-01-10T15:40:22;2.40;99.90
40153;DHT22;26371;56.992;23.912;2024-01-10T15:42:51;2.40;99.90
40153;DHT22;26371;56.992;23.912;2024-01-10T15:45:22;2.40;99.90
40153;DHT22;26371;56.992;23.912;2024-01-10T15:47:51;2.40;99.90
40153;DHT22;26371;56.992;23.912;2024-01-10T15:50:20;2.40;99.90